createdAt,value
2018-06-13T00:01:29.563Z,17.20
2018-06-13T00:03:56.918Z,17.10
2018-06-13T00:06:24.234Z,17.10
2018-06-13T00:08:51.565Z,17.00
2018-06-13T00:11:18.881Z,17.00
2018-06-13T00:13:46.209Z,17.00
2018-06-13T00:16:13.522Z,17.00
2018-06-13T00:18:40.832Z,17.00
2018-06-13T00:21:08.161Z,16.90
2018-06-13T00:23:35.484Z,16.90
2018-06-13T00:26:02.814Z,17.00
2018-06-13T00:28:30.195Z,17.00
2018-06-13T00:30:57.476Z,17.00
2018-06-13T00:33:24.830Z,17.00
2018-06-13T00:35:52.175Z,16.90
2018-06-13T00:38:19.523Z,16.90
2018-06-13T00:40:46.891Z,16.90
2018-06-13T00:43:14.243Z,16.90
2018-06-13T00:45:41.596Z,16.90
2018-06-13T00:50:36.259Z,17.00
2018-06-13T00:53:03.530Z,17.10
2018-06-13T00:55:30.935Z,17.10
2018-06-13T00:57:58.274Z,17.20
2018-06-13T01:00:25.632Z,17.20
2018-06-13T01:02:53.000Z,17.10
2018-06-13T01:05:20.388Z,17.10
2018-06-13T01:07:47.717Z,16.90
2018-06-13T01:10:15.143Z,16.90
2018-06-13T01:12:42.505Z,16.90
2018-06-13T01:15:09.854Z,16.80
2018-06-13T01:17:37.234Z,16.70
2018-06-13T01:20:04.577Z,16.70
2018-06-13T01:22:31.945Z,16.60
2018-06-13T01:24:59.279Z,16.50
2018-06-13T01:27:26.656Z,16.50
2018-06-13T01:29:53.985Z,16.50
2018-06-13T01:32:21.347Z,16.30
2018-06-13T01:34:48.716Z,16.40
2018-06-13T01:37:16.060Z,16.30
2018-06-13T01:39:43.442Z,16.40
2018-06-13T01:42:10.859Z,16.40
2018-06-13T01:44:38.177Z,16.40
2018-06-13T01:47:05.578Z,16.60
2018-06-13T01:49:32.962Z,16.50
2018-06-13T01:52:00.345Z,16.60
2018-06-13T01:54:27.703Z,16.60
2018-06-13T01:56:55.043Z,16.60
2018-06-13T01:59:22.437Z,16.60
2018-06-13T02:01:49.804Z,16.50
2018-06-13T02:04:17.134Z,16.50
2018-06-13T02:06:44.435Z,16.40
2018-06-13T02:09:11.775Z,16.20
2018-06-13T02:11:39.089Z,16.20
2018-06-13T02:14:06.417Z,16.20
2018-06-13T02:16:33.709Z,16.00
2018-06-13T02:19:01.024Z,16.00
2018-06-13T02:21:28.460Z,15.90
2018-06-13T02:23:55.783Z,15.80
2018-06-13T02:26:23.131Z,15.80
2018-06-13T02:28:50.438Z,15.80
2018-06-13T02:31:17.751Z,15.80
2018-06-13T02:33:45.049Z,15.70
2018-06-13T02:36:12.624Z,15.70
2018-06-13T02:38:39.939Z,15.70
2018-06-13T02:41:07.252Z,15.70
2018-06-13T02:43:34.574Z,15.70
2018-06-13T02:46:01.903Z,15.70
2018-06-13T02:48:29.236Z,15.80
2018-06-13T02:50:56.610Z,15.70
2018-06-13T02:53:23.948Z,15.50
2018-06-13T02:55:51.238Z,15.50
2018-06-13T02:58:18.547Z,15.50
2018-06-13T03:00:45.863Z,15.50
2018-06-13T03:03:13.206Z,15.50
2018-06-13T03:05:40.505Z,15.40
2018-06-13T03:08:07.835Z,15.30
2018-06-13T03:10:35.147Z,15.40
2018-06-13T03:13:02.444Z,15.40
2018-06-13T03:15:29.778Z,15.40
2018-06-13T03:17:57.081Z,15.30
2018-06-13T03:20:24.390Z,15.30
2018-06-13T03:22:51.734Z,15.30
2018-06-13T03:25:19.051Z,15.30
2018-06-13T03:27:46.359Z,15.30
2018-06-13T03:30:13.674Z,15.30
2018-06-13T03:32:40.983Z,15.30
2018-06-13T03:35:08.310Z,15.40
2018-06-13T03:40:02.832Z,15.30
2018-06-13T03:42:30.147Z,15.30
2018-06-13T03:44:57.482Z,15.20
2018-06-13T03:47:24.783Z,15.10
2018-06-13T03:49:52.090Z,15.10
2018-06-13T03:52:19.403Z,15.10
2018-06-13T03:54:46.710Z,15.10
2018-06-13T03:57:14.052Z,15.00
2018-06-13T03:59:41.405Z,15.00
2018-06-13T04:02:08.711Z,15.00
2018-06-13T04:04:36.013Z,15.00
2018-06-13T04:07:03.373Z,15.00
2018-06-13T04:09:30.698Z,14.90
2018-06-13T04:11:58.027Z,14.90
2018-06-13T04:14:25.347Z,15.00
2018-06-13T04:16:52.669Z,15.10
2018-06-13T04:21:47.166Z,15.10
2018-06-13T04:24:14.510Z,15.10
2018-06-13T04:26:41.851Z,15.10
2018-06-13T04:29:09.197Z,15.10
2018-06-13T04:34:03.715Z,15.20
2018-06-13T04:36:31.015Z,15.30
2018-06-13T04:38:58.322Z,15.20
2018-06-13T04:41:25.672Z,15.20
2018-06-13T04:43:52.951Z,15.20
2018-06-13T04:46:20.283Z,15.20
2018-06-13T04:48:47.838Z,15.20
2018-06-13T04:53:42.464Z,15.40
2018-06-13T04:56:09.787Z,15.40
2018-06-13T04:58:37.103Z,15.20
2018-06-13T05:03:31.730Z,15.30
2018-06-13T05:05:59.311Z,15.30
2018-06-13T05:08:26.666Z,15.50
2018-06-13T05:10:53.966Z,15.50
2018-06-13T05:18:30.747Z,15.50
2018-06-13T05:20:58.093Z,15.50
2018-06-13T05:23:25.415Z,15.50
2018-06-13T05:25:52.723Z,15.50
2018-06-13T05:28:20.041Z,15.60
2018-06-13T05:30:47.331Z,15.60
2018-06-13T05:33:14.666Z,15.50
2018-06-13T05:35:41.959Z,15.60
2018-06-13T05:38:09.284Z,15.80
2018-06-13T05:40:36.591Z,15.70
2018-06-13T05:43:04.068Z,15.70
2018-06-13T05:45:31.448Z,15.70
2018-06-13T05:47:58.794Z,15.70
2018-06-13T05:50:26.132Z,15.80
2018-06-13T05:52:53.451Z,15.80
2018-06-13T05:55:20.760Z,16.10
2018-06-13T05:57:48.140Z,16.00
2018-06-13T06:00:15.439Z,15.90
2018-06-13T06:02:42.735Z,15.90
2018-06-13T06:05:10.114Z,15.80
2018-06-13T06:07:37.519Z,15.80
2018-06-13T06:10:04.837Z,15.70
2018-06-13T06:12:32.162Z,15.90
2018-06-13T06:14:59.547Z,16.00
2018-06-13T06:17:26.868Z,15.90
2018-06-13T06:19:54.347Z,16.10
2018-06-13T06:22:21.659Z,16.20
2018-06-13T06:24:48.985Z,16.30
2018-06-13T06:27:16.343Z,16.30
2018-06-13T06:29:43.669Z,16.40
2018-06-13T06:32:11.054Z,16.40
2018-06-13T06:34:38.418Z,16.30
2018-06-13T06:37:05.806Z,16.40
2018-06-13T06:39:33.111Z,16.50
2018-06-13T06:42:00.489Z,16.40
2018-06-13T06:44:27.942Z,16.30
2018-06-13T06:46:55.270Z,16.30
2018-06-13T06:49:22.633Z,16.20
2018-06-13T06:51:50.035Z,16.30
2018-06-13T06:54:17.346Z,16.30
2018-06-13T06:56:44.751Z,16.50
2018-06-13T06:59:12.067Z,16.50
2018-06-13T07:01:39.444Z,16.40
2018-06-13T07:04:06.765Z,16.60
2018-06-13T07:06:34.247Z,16.80
2018-06-13T07:09:01.657Z,17.00
2018-06-13T07:11:29.139Z,17.00
2018-06-13T07:16:23.773Z,17.00
2018-06-13T07:18:51.091Z,17.00
2018-06-13T07:21:19.067Z,16.90
2018-06-13T07:23:46.542Z,16.80
2018-06-13T07:26:13.890Z,16.90
2018-06-13T07:28:41.248Z,17.10
2018-06-13T07:31:08.591Z,17.20
2018-06-13T07:33:35.928Z,17.10
2018-06-13T07:36:03.230Z,17.00
2018-06-13T07:38:30.559Z,17.10
2018-06-13T07:40:57.861Z,17.10
2018-06-13T07:43:25.171Z,17.10
2018-06-13T07:45:52.540Z,17.30
2018-06-13T07:48:19.870Z,17.30
2018-06-13T07:50:47.223Z,17.10
2018-06-13T07:53:14.548Z,16.80
2018-06-13T07:55:41.923Z,16.90
2018-06-13T07:58:09.222Z,16.80
2018-06-13T08:00:36.578Z,16.90
2018-06-13T08:03:04.643Z,16.80
2018-06-13T08:05:31.995Z,16.70
2018-06-13T08:07:59.800Z,16.60
2018-06-13T08:10:27.243Z,16.70
2018-06-13T08:12:54.620Z,16.90
2018-06-13T08:15:21.993Z,17.20
2018-06-13T08:17:49.320Z,17.30
2018-06-13T08:20:16.702Z,17.30
2018-06-13T08:22:44.041Z,17.20
2018-06-13T08:25:11.342Z,17.20
2018-06-13T08:27:46.793Z,17.30
2018-06-13T08:30:14.205Z,17.30
2018-06-13T08:32:41.516Z,17.00
2018-06-13T08:35:08.867Z,17.00
2018-06-13T08:37:36.216Z,17.10
2018-06-13T08:40:03.644Z,17.20
2018-06-13T08:42:30.982Z,17.40
2018-06-13T08:44:58.390Z,17.40
2018-06-13T08:47:25.743Z,17.60
2018-06-13T08:52:20.517Z,17.50
2018-06-13T08:54:47.836Z,17.40
2018-06-13T08:57:15.159Z,17.20
2018-06-13T08:59:42.474Z,17.20
2018-06-13T09:02:09.851Z,17.30
2018-06-13T09:04:37.245Z,17.20
2018-06-13T09:07:04.567Z,17.20
2018-06-13T09:09:31.911Z,17.10
2018-06-13T09:11:59.467Z,17.10
2018-06-13T09:14:26.821Z,17.20
2018-06-13T09:16:54.187Z,17.30
2018-06-13T09:19:21.507Z,17.40
2018-06-13T09:21:48.830Z,17.60
2018-06-13T09:24:16.238Z,17.60
2018-06-13T09:26:43.610Z,17.60
2018-06-13T09:29:10.952Z,17.70
2018-06-13T09:31:38.282Z,17.70
2018-06-13T09:36:32.826Z,18.10
2018-06-13T09:39:00.224Z,18.20
2018-06-13T09:41:27.712Z,18.10
2018-06-13T09:43:55.270Z,17.90
2018-06-13T09:46:22.564Z,17.90
2018-06-13T09:48:49.889Z,18.00
2018-06-13T09:51:17.257Z,18.00
2018-06-13T09:53:44.563Z,18.00
2018-06-13T09:56:11.941Z,18.10
2018-06-13T09:58:39.363Z,18.30
2018-06-13T10:01:06.677Z,18.40
2018-06-13T10:03:34.315Z,18.20
2018-06-13T10:06:01.887Z,18.10
2018-06-13T10:08:29.373Z,18.00
2018-06-13T10:10:56.735Z,17.90
2018-06-13T10:13:24.075Z,17.90
2018-06-13T10:15:51.393Z,17.90
2018-06-13T10:18:18.726Z,18.00
2018-06-13T10:20:46.058Z,17.90
2018-06-13T10:23:13.388Z,18.00
2018-06-13T10:25:40.831Z,18.20
2018-06-13T10:28:08.164Z,18.20
2018-06-13T10:30:35.502Z,18.30
2018-06-13T10:33:02.844Z,18.40
2018-06-13T10:35:30.172Z,17.80
2018-06-13T10:37:57.543Z,17.20
2018-06-13T10:42:52.307Z,18.10
2018-06-13T10:45:19.620Z,18.30
2018-06-13T10:47:46.989Z,18.40
2018-06-13T10:50:14.472Z,18.60
2018-06-13T10:52:41.800Z,18.80
2018-06-13T10:55:09.187Z,19.00
2018-06-13T10:57:36.551Z,19.00
2018-06-13T11:00:04.098Z,18.60
2018-06-13T11:02:32.007Z,18.80
2018-06-13T11:05:00.085Z,18.60
2018-06-13T11:07:27.419Z,18.40
2018-06-13T11:09:54.809Z,18.50
2018-06-13T11:12:22.174Z,18.40
2018-06-13T11:14:49.902Z,18.40
2018-06-13T11:17:17.554Z,18.30
2018-06-13T11:19:44.870Z,18.40
2018-06-13T11:22:13.087Z,18.30
2018-06-13T11:24:40.407Z,18.20
2018-06-13T11:27:07.769Z,18.00
2018-06-13T11:29:35.098Z,17.90
2018-06-13T11:32:02.440Z,17.80
2018-06-13T11:34:29.776Z,17.70
2018-06-13T11:36:57.083Z,17.70
2018-06-13T11:39:24.404Z,17.80
2018-06-13T11:41:51.831Z,18.10
2018-06-13T11:46:46.554Z,18.50
2018-06-13T11:49:13.883Z,18.80
2018-06-13T11:51:41.206Z,19.20
2018-06-13T11:54:08.647Z,19.30
2018-06-13T11:56:36.081Z,19.20
2018-06-13T11:59:03.410Z,18.90
2018-06-13T12:01:31.908Z,19.10
2018-06-13T12:03:59.208Z,19.30
2018-06-13T12:06:26.561Z,19.10
2018-06-13T12:08:53.974Z,18.80
2018-06-13T12:11:21.631Z,18.70
2018-06-13T12:13:49.015Z,18.80
2018-06-13T12:16:16.400Z,18.90
2018-06-13T12:18:43.712Z,18.90
2018-06-13T12:21:11.044Z,18.80
2018-06-13T12:23:38.632Z,18.70
2018-06-13T12:28:33.265Z,18.90
2018-06-13T12:31:00.590Z,18.80
2018-06-13T12:33:27.962Z,18.30
2018-06-13T12:35:55.302Z,18.10
2018-06-13T12:38:22.775Z,17.80
2018-06-13T12:40:50.106Z,18.00
2018-06-13T12:43:17.444Z,18.30
2018-06-13T12:45:44.922Z,18.30
2018-06-13T12:48:12.487Z,18.20
2018-06-13T12:50:39.867Z,18.10
2018-06-13T12:53:07.264Z,18.20
2018-06-13T12:55:34.659Z,18.10
2018-06-13T12:58:02.110Z,17.90
2018-06-13T13:00:29.559Z,17.80
2018-06-13T13:02:56.855Z,17.80
2018-06-13T13:05:24.228Z,18.00
2018-06-13T13:07:51.536Z,17.90
2018-06-13T13:10:18.851Z,18.00
2018-06-13T13:12:46.174Z,17.90
2018-06-13T13:15:13.501Z,17.70
2018-06-13T13:17:40.808Z,17.80
2018-06-13T13:20:08.136Z,18.00
2018-06-13T13:22:35.486Z,18.10
2018-06-13T13:25:02.970Z,18.00
2018-06-13T13:27:30.249Z,17.90
2018-06-13T13:29:57.598Z,17.80
2018-06-13T13:32:24.908Z,18.00
2018-06-13T13:34:52.212Z,18.00
2018-06-13T13:37:19.650Z,18.10
2018-06-13T13:39:46.955Z,18.00
2018-06-13T13:42:14.275Z,18.00
2018-06-13T13:44:41.590Z,17.90
2018-06-13T13:47:08.931Z,17.90
2018-06-13T13:49:36.260Z,18.10
2018-06-13T13:52:03.596Z,18.20
2018-06-13T13:54:30.951Z,18.30
2018-06-13T13:56:58.279Z,18.60
2018-06-13T13:59:25.604Z,18.70
2018-06-13T14:01:52.901Z,18.90
2018-06-13T14:04:20.210Z,18.60
2018-06-13T14:06:47.539Z,18.60
2018-06-13T14:09:14.865Z,18.60
2018-06-13T14:11:42.175Z,18.50
2018-06-13T14:14:09.497Z,18.60
2018-06-13T14:16:36.846Z,18.40
2018-06-13T14:19:04.486Z,18.10
2018-06-13T14:21:31.799Z,18.10
2018-06-13T14:23:59.123Z,18.20
2018-06-13T14:26:26.512Z,18.30
2018-06-13T14:28:53.840Z,18.10
2018-06-13T14:31:21.203Z,18.10
2018-06-13T14:33:48.503Z,18.10
2018-06-13T14:36:15.838Z,18.10
2018-06-13T14:38:43.167Z,18.20
2018-06-13T14:41:10.464Z,18.30
2018-06-13T14:43:37.783Z,18.40
2018-06-13T14:46:05.151Z,18.60
2018-06-13T14:48:32.530Z,18.80
2018-06-13T14:51:00.117Z,18.90
2018-06-13T14:53:27.492Z,18.80
2018-06-13T14:55:54.824Z,18.80
2018-06-13T14:58:22.167Z,18.80
2018-06-13T15:00:49.529Z,18.40
2018-06-13T15:05:44.347Z,18.60
2018-06-13T15:08:11.731Z,19.00
2018-06-13T15:10:39.026Z,19.20
2018-06-13T15:13:06.384Z,19.10
2018-06-13T15:18:00.963Z,19.10
2018-06-13T15:20:28.284Z,19.20
2018-06-13T15:22:55.623Z,19.40
2018-06-13T15:27:50.214Z,19.40
2018-06-13T15:30:17.561Z,19.30
2018-06-13T15:32:44.919Z,19.40
2018-06-13T15:35:12.558Z,19.30
2018-06-13T15:37:39.879Z,19.30
2018-06-13T15:40:07.287Z,19.30
2018-06-13T15:42:35.422Z,19.30
2018-06-13T15:45:04.639Z,19.20
2018-06-13T15:47:32.555Z,19.30
2018-06-13T15:50:02.207Z,19.50
2018-06-13T15:52:32.070Z,19.70
2018-06-13T15:55:02.010Z,19.60
2018-06-13T15:57:30.026Z,19.60
2018-06-13T15:59:58.905Z,19.50
2018-06-13T16:02:28.707Z,19.40
2018-06-13T16:04:56.339Z,19.30
2018-06-13T16:07:24.735Z,19.30
2018-06-13T16:09:53.188Z,19.20
2018-06-13T16:12:22.847Z,19.00
2018-06-13T16:14:52.406Z,19.10
2018-06-13T16:17:23.982Z,19.20
2018-06-13T16:19:54.173Z,19.10
2018-06-13T16:22:21.475Z,18.90
2018-06-13T16:24:48.923Z,18.70
2018-06-13T16:27:16.265Z,18.70
2018-06-13T16:29:43.748Z,18.80
2018-06-13T16:32:11.565Z,18.90
2018-06-13T16:34:38.873Z,19.00
2018-06-13T16:37:06.169Z,19.10
2018-06-13T16:39:33.502Z,19.20
2018-06-13T16:42:00.876Z,19.10
2018-06-13T16:44:28.204Z,18.60
2018-06-13T16:46:55.782Z,18.30
2018-06-13T16:49:23.083Z,18.40
2018-06-13T16:51:51.725Z,18.20
2018-06-13T16:54:30.395Z,18.10
2018-06-13T16:56:57.708Z,18.10
2018-06-13T16:59:25.026Z,18.60
2018-06-13T17:01:52.328Z,19.00
2018-06-13T17:04:19.701Z,19.70
2018-06-13T17:06:47.223Z,20.20
2018-06-13T17:09:15.357Z,20.50
2018-06-13T17:11:42.760Z,20.40
2018-06-13T17:14:10.151Z,20.00
2018-06-13T17:16:37.540Z,19.50
2018-06-13T17:19:04.905Z,19.10
2018-06-13T17:21:32.424Z,18.80
2018-06-13T17:23:59.741Z,18.60
2018-06-13T17:26:27.096Z,18.50
2018-06-13T17:28:54.455Z,18.60
2018-06-13T17:31:21.783Z,18.60
2018-06-13T17:33:49.115Z,18.70
2018-06-13T17:36:16.466Z,18.60
2018-06-13T17:38:43.788Z,18.60
2018-06-13T17:41:11.145Z,18.50
2018-06-13T17:43:38.503Z,18.40
2018-06-13T17:46:05.824Z,18.30
2018-06-13T17:48:33.178Z,18.30
2018-06-13T17:51:00.688Z,18.30
2018-06-13T17:53:28.498Z,18.20
2018-06-13T17:55:55.848Z,18.20
2018-06-13T17:58:23.231Z,18.30
2018-06-13T18:00:50.598Z,18.30
2018-06-13T18:03:17.877Z,18.30
2018-06-13T18:05:45.247Z,18.50
2018-06-13T18:08:12.583Z,18.50
2018-06-13T18:10:39.946Z,18.50
2018-06-13T18:13:07.278Z,18.30
2018-06-13T18:15:34.633Z,18.30
2018-06-13T18:18:01.980Z,18.40
2018-06-13T18:20:29.397Z,18.40
2018-06-13T18:22:56.788Z,18.40
2018-06-13T18:25:24.095Z,18.50
2018-06-13T18:27:51.405Z,18.40
2018-06-13T18:32:46.806Z,18.40
2018-06-13T18:35:14.119Z,18.40
2018-06-13T18:37:41.524Z,18.30
2018-06-13T18:40:08.855Z,18.20
2018-06-13T18:42:36.168Z,18.10
2018-06-13T18:45:03.520Z,18.00
2018-06-13T18:47:31.239Z,18.10
2018-06-13T18:49:58.640Z,18.20
2018-06-13T18:52:26.058Z,18.20
2018-06-13T18:54:53.367Z,18.30
2018-06-13T18:57:20.685Z,18.30
2018-06-13T18:59:48.065Z,18.20
2018-06-13T19:02:18.698Z,18.10
2018-06-13T19:04:46.154Z,18.10
2018-06-13T19:07:13.799Z,18.00
2018-06-13T19:09:41.075Z,17.90
2018-06-13T19:12:08.886Z,17.90
2018-06-13T19:14:36.253Z,17.70
2018-06-13T19:17:03.675Z,17.60
2018-06-13T19:19:31.031Z,17.80
2018-06-13T19:21:58.404Z,18.00
2018-06-13T19:24:25.822Z,18.10
2018-06-13T19:26:53.139Z,17.90
2018-06-13T19:29:20.475Z,17.80
2018-06-13T19:31:47.823Z,17.70
2018-06-13T19:34:15.145Z,17.60
2018-06-13T19:36:42.499Z,17.70
2018-06-13T19:39:09.948Z,17.80
2018-06-13T19:41:37.242Z,17.90
2018-06-13T19:44:04.577Z,17.90
2018-06-13T19:46:31.923Z,17.90
2018-06-13T19:48:59.373Z,18.00
2018-06-13T19:51:26.738Z,18.00
2018-06-13T19:53:54.052Z,18.10
2018-06-13T19:56:21.381Z,18.20
2018-06-13T19:58:48.710Z,18.20
2018-06-13T20:01:16.055Z,18.20
2018-06-13T20:03:43.482Z,18.10
2018-06-13T20:06:10.817Z,18.10
2018-06-13T20:08:38.212Z,18.20
2018-06-13T20:11:05.679Z,18.10
2018-06-13T20:13:33.025Z,17.90
2018-06-13T20:16:00.391Z,17.80
2018-06-13T20:18:27.748Z,17.90
2018-06-13T20:20:55.115Z,18.00
2018-06-13T20:23:22.432Z,18.10
2018-06-13T20:25:49.771Z,18.10
2018-06-13T20:28:17.124Z,18.00
2018-06-13T20:30:44.509Z,18.10
2018-06-13T20:33:11.918Z,18.10
2018-06-13T20:35:39.255Z,18.20
2018-06-13T20:38:06.604Z,18.10
2018-06-13T20:40:34.999Z,18.00
2018-06-13T20:43:02.377Z,17.90
2018-06-13T20:45:29.744Z,17.80
2018-06-13T20:47:57.083Z,17.80
2018-06-13T20:50:24.645Z,17.90
2018-06-13T20:52:51.950Z,18.00
2018-06-13T20:55:19.296Z,18.00
2018-06-13T20:57:46.628Z,17.80
2018-06-13T21:00:13.972Z,17.50
2018-06-13T21:02:41.339Z,17.40
2018-06-13T21:05:08.684Z,17.40
2018-06-13T21:07:36.040Z,17.40
2018-06-13T21:10:03.373Z,17.30
2018-06-13T21:12:31.080Z,17.30
2018-06-13T21:14:58.507Z,17.40
2018-06-13T21:17:25.849Z,17.40
2018-06-13T21:19:53.172Z,17.30
2018-06-13T21:22:20.554Z,17.30
2018-06-13T21:24:47.990Z,17.30
2018-06-13T21:27:15.342Z,17.30
2018-06-13T21:29:42.687Z,17.40
2018-06-13T21:32:10.040Z,17.50
2018-06-13T21:34:37.379Z,17.50
2018-06-13T21:37:04.859Z,17.50
2018-06-13T21:39:32.184Z,17.60
2018-06-13T21:41:59.604Z,17.60
2018-06-13T21:44:26.894Z,17.70
2018-06-13T21:46:54.268Z,17.70
2018-06-13T21:49:21.588Z,17.70
2018-06-13T21:51:48.964Z,17.70
2018-06-13T21:54:16.378Z,17.70
2018-06-13T21:56:43.666Z,17.60
2018-06-13T21:59:10.972Z,17.50
2018-06-13T22:01:38.331Z,17.50
2018-06-13T22:04:05.627Z,17.60
2018-06-13T22:06:32.945Z,17.60
2018-06-13T22:09:00.275Z,17.60
2018-06-13T22:11:27.583Z,17.60
2018-06-13T22:13:54.882Z,17.50
2018-06-13T22:16:22.228Z,17.50
2018-06-13T22:18:49.522Z,17.40
2018-06-13T22:21:16.838Z,17.30
2018-06-13T22:23:44.140Z,17.30
2018-06-13T22:26:11.446Z,17.30
2018-06-13T22:28:38.778Z,17.30
2018-06-13T22:31:06.098Z,17.40
2018-06-13T22:33:33.418Z,17.40
2018-06-13T22:36:00.723Z,17.50
2018-06-13T22:38:28.037Z,17.40
2018-06-13T22:40:55.841Z,17.50
2018-06-13T22:43:23.138Z,17.50
2018-06-13T22:45:50.481Z,17.40
2018-06-13T22:48:17.789Z,17.40
2018-06-13T22:50:45.132Z,17.50
2018-06-13T22:53:12.458Z,17.50
2018-06-13T22:55:39.834Z,17.50
2018-06-13T22:58:07.588Z,17.50
2018-06-13T23:01:01.783Z,17.50
2018-06-13T23:03:29.129Z,17.40
2018-06-13T23:05:56.451Z,17.30
2018-06-13T23:08:23.833Z,17.20
2018-06-13T23:10:51.127Z,17.20
2018-06-13T23:13:18.475Z,17.10
2018-06-13T23:15:45.791Z,17.00
2018-06-13T23:18:13.130Z,17.00
2018-06-13T23:20:40.459Z,17.10
2018-06-13T23:23:07.813Z,17.10
2018-06-13T23:25:35.137Z,17.00
2018-06-13T23:28:02.477Z,16.90
2018-06-13T23:30:29.771Z,16.80
2018-06-13T23:32:57.188Z,16.90
2018-06-13T23:35:24.454Z,17.00
2018-06-13T23:37:51.843Z,17.10
2018-06-13T23:40:19.172Z,17.20
2018-06-13T23:42:46.480Z,17.20
2018-06-13T23:45:13.827Z,17.30
2018-06-13T23:47:41.142Z,17.40
2018-06-13T23:50:08.479Z,17.40
2018-06-13T23:52:35.791Z,17.40
2018-06-13T23:55:03.268Z,17.40
2018-06-13T23:57:30.604Z,17.40
2018-06-13T23:59:57.914Z,17.40
